createdAt,value
2018-07-30T00:01:51.574Z,21.24
2018-07-30T00:04:21.551Z,21.25
2018-07-30T00:06:51.833Z,21.21
2018-07-30T00:09:21.600Z,21.20
2018-07-30T00:11:51.612Z,21.16
2018-07-30T00:14:21.718Z,21.11
2018-07-30T00:16:51.777Z,21.08
2018-07-30T00:19:21.699Z,21.02
2018-07-30T00:21:51.652Z,21.01
2018-07-30T00:24:20.709Z,20.95
2018-07-30T00:26:49.776Z,20.89
2018-07-30T00:29:18.821Z,20.85
2018-07-30T00:31:47.915Z,20.85
2018-07-30T00:34:17.077Z,20.83
2018-07-30T00:36:46.206Z,20.79
2018-07-30T00:39:15.250Z,20.72
2018-07-30T00:41:44.431Z,20.68
2018-07-30T00:44:13.560Z,20.62
2018-07-30T00:46:42.631Z,20.60
2018-07-30T00:49:11.714Z,20.62
2018-07-30T00:51:41.171Z,20.59
2018-07-30T00:54:10.637Z,20.56
2018-07-30T00:56:40.070Z,20.55
2018-07-30T00:59:09.616Z,20.55
2018-07-30T01:01:38.797Z,20.55
2018-07-30T01:04:08.242Z,20.54
2018-07-30T01:06:37.370Z,20.55
2018-07-30T01:09:09.521Z,20.55
2018-07-30T01:11:38.901Z,20.55
2018-07-30T01:14:07.980Z,20.52
2018-07-30T01:16:37.034Z,20.46
2018-07-30T01:19:06.147Z,20.42
2018-07-30T01:21:35.312Z,20.39
2018-07-30T01:24:04.381Z,20.42
2018-07-30T01:26:33.452Z,20.41
2018-07-30T01:29:02.832Z,20.38
2018-07-30T01:31:32.053Z,20.35
2018-07-30T01:34:01.380Z,20.32
2018-07-30T01:36:30.611Z,20.29
2018-07-30T01:39:00.103Z,20.26
2018-07-30T01:41:29.174Z,20.25
2018-07-30T01:43:58.314Z,20.24
2018-07-30T01:46:27.400Z,20.19
2018-07-30T01:48:56.926Z,20.18
2018-07-30T01:51:26.010Z,20.17
2018-07-30T01:53:55.089Z,20.16
2018-07-30T01:56:24.209Z,20.13
2018-07-30T01:58:53.280Z,20.09
2018-07-30T02:01:22.909Z,20.08
2018-07-30T02:03:52.758Z,20.05
2018-07-30T02:06:22.877Z,20.03
2018-07-30T02:08:52.760Z,19.99
2018-07-30T02:11:21.869Z,19.96
2018-07-30T02:13:51.005Z,19.94
2018-07-30T02:16:20.145Z,19.90
2018-07-30T02:18:49.244Z,19.88
2018-07-30T02:21:18.324Z,19.88
2018-07-30T02:23:47.391Z,19.88
2018-07-30T02:26:16.454Z,19.88
2018-07-30T02:28:45.501Z,19.88
2018-07-30T02:31:14.567Z,19.88
2018-07-30T02:33:43.604Z,19.91
2018-07-30T02:36:12.701Z,19.95
2018-07-30T02:38:41.855Z,19.96
2018-07-30T02:41:10.914Z,19.92
2018-07-30T02:43:39.947Z,19.86
2018-07-30T02:46:09.005Z,19.78
2018-07-30T02:48:38.100Z,19.72
2018-07-30T02:51:07.344Z,19.68
2018-07-30T02:53:36.440Z,19.62
2018-07-30T02:56:05.590Z,19.59
2018-07-30T02:58:34.645Z,19.57
2018-07-30T03:01:03.754Z,19.54
2018-07-30T03:03:32.919Z,19.42
2018-07-30T03:06:03.165Z,19.33
2018-07-30T03:08:32.575Z,19.31
2018-07-30T03:11:02.028Z,19.30
2018-07-30T03:13:31.151Z,19.29
2018-07-30T03:16:00.218Z,19.27
2018-07-30T03:18:29.595Z,19.25
2018-07-30T03:20:58.838Z,19.23
2018-07-30T03:23:27.907Z,19.22
2018-07-30T03:25:56.996Z,19.20
2018-07-30T03:28:26.118Z,19.18
2018-07-30T03:30:55.234Z,19.17
2018-07-30T03:33:24.737Z,19.14
2018-07-30T03:35:53.856Z,19.09
2018-07-30T03:38:24.160Z,19.11
2018-07-30T03:40:54.080Z,19.11
2018-07-30T03:43:23.979Z,19.08
2018-07-30T03:45:53.940Z,19.08
2018-07-30T03:48:24.160Z,19.04
2018-07-30T03:50:54.149Z,19.00
2018-07-30T03:53:24.097Z,18.93
2018-07-30T03:55:54.377Z,18.90
2018-07-30T03:58:24.559Z,18.86
2018-07-30T04:00:53.982Z,18.83
2018-07-30T04:03:23.308Z,18.80
2018-07-30T04:05:52.493Z,18.80
2018-07-30T04:08:21.910Z,18.82
2018-07-30T04:10:51.356Z,18.82
2018-07-30T04:13:20.466Z,18.82
2018-07-30T04:15:49.583Z,18.84
2018-07-30T04:18:18.685Z,18.86
2018-07-30T04:20:47.736Z,18.91
2018-07-30T04:23:16.813Z,18.94
2018-07-30T04:25:45.891Z,18.96
2018-07-30T04:28:14.958Z,18.97
2018-07-30T04:30:44.036Z,19.02
2018-07-30T04:33:13.143Z,19.04
2018-07-30T04:35:42.234Z,19.08
2018-07-30T04:38:11.265Z,19.14
2018-07-30T04:40:40.348Z,19.16
2018-07-30T04:43:09.395Z,19.18
2018-07-30T04:45:38.509Z,19.23
2018-07-30T04:48:07.815Z,19.19
2018-07-30T04:50:36.857Z,19.15
2018-07-30T04:53:05.928Z,19.14
2018-07-30T04:55:35.165Z,19.18
2018-07-30T04:58:04.705Z,19.20
2018-07-30T05:00:33.822Z,19.22
2018-07-30T05:03:06.172Z,19.25
2018-07-30T05:05:37.156Z,19.32
2018-07-30T05:08:06.376Z,19.39
2018-07-30T05:10:36.136Z,19.40
2018-07-30T05:13:05.246Z,19.49
2018-07-30T05:15:34.415Z,19.55
2018-07-30T05:18:03.626Z,19.59
2018-07-30T05:20:32.794Z,19.62
2018-07-30T05:23:01.851Z,19.61
2018-07-30T05:25:30.998Z,19.62
2018-07-30T05:28:00.111Z,19.66
2018-07-30T05:30:29.520Z,19.71
2018-07-30T05:32:59.206Z,19.78
2018-07-30T05:35:28.293Z,19.82
2018-07-30T05:37:57.636Z,19.89
2018-07-30T05:40:26.721Z,19.94
2018-07-30T05:42:55.806Z,20.05
2018-07-30T05:45:25.299Z,20.12
2018-07-30T05:47:55.333Z,20.17
2018-07-30T05:50:25.453Z,20.23
2018-07-30T05:52:55.508Z,20.32
2018-07-30T05:55:25.221Z,20.38
2018-07-30T05:57:55.729Z,20.45
2018-07-30T06:00:25.549Z,20.52
2018-07-30T06:02:55.293Z,20.59
2018-07-30T06:05:25.482Z,20.66
2018-07-30T06:07:55.637Z,20.73
2018-07-30T06:10:25.389Z,20.82
2018-07-30T06:12:55.873Z,20.89
2018-07-30T06:15:25.437Z,20.93
2018-07-30T06:17:55.511Z,21.01
2018-07-30T06:20:25.436Z,21.07
2018-07-30T06:22:55.708Z,21.15
2018-07-30T06:25:25.841Z,21.22
2018-07-30T06:27:56.076Z,21.25
2018-07-30T06:30:25.529Z,21.30
2018-07-30T06:32:55.601Z,21.42
2018-07-30T06:35:26.102Z,21.48
2018-07-30T06:37:55.662Z,21.57
2018-07-30T06:40:25.730Z,21.61
2018-07-30T06:42:55.675Z,21.66
2018-07-30T06:45:25.869Z,21.76
2018-07-30T06:47:55.820Z,21.86
2018-07-30T06:50:25.728Z,21.92
2018-07-30T06:52:55.703Z,22.08
2018-07-30T07:05:05.067Z,22.22
2018-07-30T07:07:34.517Z,22.62
2018-07-30T07:10:03.629Z,22.70
2018-07-30T07:15:32.425Z,22.83
2018-07-30T07:18:01.645Z,22.92
2018-07-30T07:20:30.707Z,23.02
2018-07-30T07:22:59.841Z,23.16
2018-07-30T07:25:28.928Z,23.26
2018-07-30T07:27:58.015Z,23.35
2018-07-30T07:30:27.060Z,23.49
2018-07-30T07:32:56.136Z,23.57
2018-07-30T07:35:26.250Z,23.61
2018-07-30T07:37:56.072Z,23.70
2018-07-30T07:40:26.328Z,23.74
2018-07-30T07:42:56.065Z,23.76
2018-07-30T07:45:25.129Z,23.86
2018-07-30T07:47:54.210Z,23.98
2018-07-30T07:50:23.319Z,24.09
2018-07-30T07:52:52.369Z,24.23
2018-07-30T07:55:21.446Z,24.35
2018-07-30T07:57:50.520Z,24.46
2018-07-30T08:00:19.664Z,24.50
2018-07-30T08:02:48.860Z,24.50
2018-07-30T08:05:17.966Z,24.54
2018-07-30T08:07:47.077Z,24.61
2018-07-30T08:10:16.202Z,24.71
2018-07-30T08:12:45.329Z,24.82
2018-07-30T08:15:14.463Z,24.95
2018-07-30T08:17:43.557Z,25.12
2018-07-30T08:20:12.930Z,25.27
2018-07-30T08:22:42.067Z,25.39
2018-07-30T08:25:12.804Z,25.53
2018-07-30T08:27:42.809Z,25.74
2018-07-30T08:30:12.011Z,25.89
2018-07-30T08:32:41.071Z,26.00
2018-07-30T08:35:10.217Z,26.13
2018-07-30T08:37:39.455Z,26.15
2018-07-30T08:40:09.027Z,26.20
2018-07-30T08:42:38.349Z,26.31
2018-07-30T08:45:07.887Z,26.38
2018-07-30T08:47:36.943Z,26.40
2018-07-30T08:50:06.291Z,26.45
2018-07-30T08:52:35.488Z,26.58
2018-07-30T08:55:05.271Z,26.65
2018-07-30T08:57:34.351Z,26.80
2018-07-30T09:00:03.477Z,26.84
2018-07-30T09:02:32.579Z,26.86
2018-07-30T09:05:01.625Z,26.94
2018-07-30T09:07:30.663Z,26.99
2018-07-30T09:09:59.761Z,27.08
2018-07-30T09:12:28.991Z,27.23
2018-07-30T09:14:58.071Z,27.32
2018-07-30T09:17:27.574Z,27.34
2018-07-30T09:19:57.383Z,27.43
2018-07-30T09:22:26.597Z,27.49
2018-07-30T09:24:55.641Z,27.58
2018-07-30T09:27:24.721Z,27.65
2018-07-30T09:29:53.789Z,27.71
2018-07-30T09:32:22.843Z,27.82
2018-07-30T09:34:52.751Z,27.79
2018-07-30T09:37:21.834Z,27.83
2018-07-30T09:39:50.975Z,27.95
2018-07-30T09:42:20.144Z,28.08
2018-07-30T09:44:49.419Z,28.12
2018-07-30T09:47:19.770Z,28.19
2018-07-30T09:49:48.889Z,28.27
2018-07-30T09:52:18.002Z,28.31
2018-07-30T09:54:47.073Z,28.40
2018-07-30T09:57:16.139Z,28.47
2018-07-30T09:59:45.188Z,28.54
2018-07-30T10:02:14.221Z,28.66
2018-07-30T10:04:44.685Z,28.74
2018-07-30T10:07:14.603Z,28.81
2018-07-30T10:09:44.478Z,28.84
2018-07-30T10:12:13.888Z,28.87
2018-07-30T10:14:43.105Z,28.90
2018-07-30T10:17:12.201Z,28.94
2018-07-30T10:19:41.288Z,28.96
2018-07-30T10:22:10.416Z,29.03
2018-07-30T10:24:39.524Z,29.09
2018-07-30T10:27:08.868Z,29.09
2018-07-30T10:29:37.917Z,29.16
2018-07-30T10:32:07.198Z,29.26
2018-07-30T10:34:36.739Z,29.35
2018-07-30T10:37:05.812Z,29.40
2018-07-30T10:39:34.870Z,29.42
2018-07-30T10:42:03.998Z,29.45
2018-07-30T10:44:33.775Z,29.50
2018-07-30T10:47:03.039Z,29.55
2018-07-30T10:49:32.556Z,29.48
2018-07-30T10:52:01.713Z,29.58
2018-07-30T10:54:30.956Z,29.76
2018-07-30T10:57:00.647Z,29.82
2018-07-30T10:59:29.742Z,29.79
2018-07-30T11:01:58.885Z,29.83
2018-07-30T11:04:28.586Z,29.99
2018-07-30T11:06:58.662Z,30.09
2018-07-30T11:09:29.744Z,30.11
2018-07-30T11:11:58.930Z,30.15
2018-07-30T11:14:28.780Z,30.28
2018-07-30T11:16:59.622Z,30.35
2018-07-30T11:19:29.279Z,30.43
2018-07-30T11:22:00.479Z,30.57
2018-07-30T11:24:29.623Z,30.67
2018-07-30T11:26:59.305Z,30.65
2018-07-30T11:29:29.441Z,30.67
2018-07-30T11:31:59.336Z,30.69
2018-07-30T11:34:29.375Z,30.57
2018-07-30T11:36:59.346Z,30.42
2018-07-30T11:39:29.798Z,30.47
2018-07-30T11:41:59.668Z,30.61
2018-07-30T11:44:29.451Z,30.73
2018-07-30T11:46:59.419Z,30.90
2018-07-30T11:49:29.497Z,30.97
2018-07-30T11:51:59.712Z,30.97
2018-07-30T11:54:29.611Z,30.79
2018-07-30T11:56:59.546Z,30.82
2018-07-30T11:59:29.655Z,30.97
2018-07-30T12:01:59.750Z,31.03
2018-07-30T12:04:29.749Z,30.94
2018-07-30T12:06:59.687Z,30.83
2018-07-30T12:09:29.663Z,30.66
2018-07-30T12:11:59.836Z,30.57
2018-07-30T12:14:29.794Z,30.50
2018-07-30T12:17:00.545Z,30.44
2018-07-30T12:19:30.424Z,30.45
2018-07-30T12:21:59.948Z,30.58
2018-07-30T12:24:29.826Z,30.83
2018-07-30T12:26:59.857Z,31.09
2018-07-30T12:29:29.829Z,31.30
2018-07-30T12:31:59.992Z,31.51
2018-07-30T12:34:30.671Z,31.64
2018-07-30T12:37:00.071Z,31.71
2018-07-30T12:39:30.239Z,31.76
2018-07-30T12:42:00.206Z,31.85
2018-07-30T12:44:30.013Z,31.83
2018-07-30T12:47:00.112Z,31.92
2018-07-30T12:49:30.274Z,32.09
2018-07-30T12:52:00.317Z,32.24
2018-07-30T12:54:30.132Z,32.13
2018-07-30T12:57:00.218Z,32.20
2018-07-30T12:59:30.212Z,32.32
2018-07-30T13:02:00.252Z,32.37
2018-07-30T13:04:31.426Z,32.29
2018-07-30T13:07:00.460Z,32.18
2018-07-30T13:09:30.347Z,32.31
2018-07-30T13:12:00.226Z,32.42
2018-07-30T13:14:30.231Z,32.49
2018-07-30T13:17:00.238Z,32.51
2018-07-30T13:19:30.403Z,32.29
2018-07-30T13:22:00.282Z,32.37
2018-07-30T13:24:30.567Z,32.55
2018-07-30T13:27:00.367Z,32.78
2018-07-30T13:29:30.560Z,32.81
2018-07-30T13:32:00.490Z,32.82
2018-07-30T13:34:30.656Z,32.57
2018-07-30T13:37:00.744Z,32.77
2018-07-30T13:39:30.610Z,32.92
2018-07-30T13:42:00.680Z,33.04
2018-07-30T13:44:30.691Z,33.20
2018-07-30T13:47:00.678Z,33.23
2018-07-30T13:49:30.641Z,33.18
2018-07-30T13:52:00.812Z,33.38
2018-07-30T13:54:30.778Z,33.53
2018-07-30T13:57:01.051Z,33.68
2018-07-30T13:59:31.010Z,33.88
2018-07-30T14:02:00.602Z,34.08
2018-07-30T14:04:30.766Z,34.00
2018-07-30T14:07:00.848Z,34.07
2018-07-30T14:09:30.800Z,34.23
2018-07-30T14:12:00.738Z,34.46
2018-07-30T14:14:31.202Z,34.76
2018-07-30T14:42:50.728Z,34.91
2018-07-30T14:45:19.984Z,38.02
2018-07-30T14:47:49.044Z,38.20
2018-07-30T14:50:18.232Z,38.60
2018-07-30T14:52:47.395Z,38.79
2018-07-30T14:55:16.523Z,38.90
2018-07-30T14:57:45.830Z,38.75
2018-07-30T15:00:14.891Z,38.65
2018-07-30T15:02:43.958Z,38.53
2018-07-30T15:05:17.020Z,38.70
2018-07-30T15:07:46.136Z,38.94
2018-07-30T15:10:15.285Z,38.94
2018-07-30T15:12:44.434Z,38.58
2018-07-30T15:15:13.634Z,38.79
2018-07-30T15:17:43.076Z,39.01
2018-07-30T15:20:12.150Z,38.49
2018-07-30T15:22:41.298Z,38.58
2018-07-30T15:25:10.528Z,38.75
2018-07-30T15:27:39.587Z,38.84
2018-07-30T15:30:08.760Z,38.97
2018-07-30T15:32:37.916Z,38.96
2018-07-30T15:35:08.031Z,39.15
2018-07-30T15:37:38.362Z,39.19
2018-07-30T15:40:07.831Z,39.17
2018-07-30T15:42:36.975Z,39.00
2018-07-30T15:45:06.081Z,38.99
2018-07-30T15:47:35.460Z,38.96
2018-07-30T15:50:05.494Z,39.09
2018-07-30T15:52:34.970Z,38.95
2018-07-30T15:55:04.503Z,38.79
2018-07-30T15:57:33.849Z,38.87
2018-07-30T16:02:32.211Z,38.57
2018-07-30T16:07:30.772Z,37.97
2018-07-30T16:09:59.894Z,37.71
2018-07-30T16:12:29.509Z,37.58
2018-07-30T16:14:59.717Z,37.56
2018-07-30T16:17:29.575Z,37.51
2018-07-30T16:19:59.608Z,37.37
2018-07-30T16:22:29.533Z,37.24
2018-07-30T16:24:59.795Z,36.88
2018-07-30T16:27:29.727Z,36.18
2018-07-30T16:29:59.676Z,35.68
2018-07-30T16:32:29.669Z,35.30
2018-07-30T16:34:58.711Z,35.00
2018-07-30T16:37:28.139Z,34.72
2018-07-30T16:39:57.197Z,34.37
2018-07-30T16:42:26.581Z,34.13
2018-07-30T16:44:55.863Z,33.89
2018-07-30T16:47:25.278Z,33.79
2018-07-30T16:49:54.329Z,33.62
2018-07-30T16:52:23.554Z,33.39
2018-07-30T16:54:53.032Z,32.99
2018-07-30T16:57:22.165Z,32.75
2018-07-30T16:59:51.674Z,32.67
2018-07-30T17:02:20.834Z,32.61
2018-07-30T17:04:50.320Z,32.52
2018-07-30T17:07:19.596Z,32.50
2018-07-30T17:09:48.906Z,32.44
2018-07-30T17:12:18.765Z,32.33
2018-07-30T17:14:47.864Z,32.24
2018-07-30T17:17:16.968Z,32.09
2018-07-30T17:19:46.024Z,32.01
2018-07-30T17:22:15.221Z,31.92
2018-07-30T17:24:45.160Z,31.85
2018-07-30T17:27:14.367Z,31.82
2018-07-30T17:29:43.695Z,31.73
2018-07-30T17:32:12.820Z,31.66
2018-07-30T17:34:41.929Z,31.60
2018-07-30T17:37:11.419Z,31.45
2018-07-30T17:39:40.950Z,31.36
2018-07-30T17:42:10.043Z,31.28
2018-07-30T17:44:39.543Z,31.19
2018-07-30T17:47:09.000Z,31.05
2018-07-30T17:49:38.092Z,30.96
2018-07-30T17:52:07.659Z,30.90
2018-07-30T17:54:36.712Z,30.81
2018-07-30T17:57:05.842Z,30.69
2018-07-30T17:59:35.789Z,30.63
2018-07-30T18:02:05.647Z,30.56
2018-07-30T18:04:35.863Z,30.52
2018-07-30T18:07:05.998Z,30.46
2018-07-30T18:09:35.655Z,30.35
2018-07-30T18:12:06.191Z,30.27
2018-07-30T18:14:36.115Z,30.21
2018-07-30T18:17:05.891Z,30.15
2018-07-30T18:19:36.238Z,30.07
2018-07-30T18:22:05.985Z,30.00
2018-07-30T18:24:35.751Z,29.87
2018-07-30T18:27:05.990Z,29.79
2018-07-30T18:29:36.117Z,29.71
2018-07-30T18:32:06.314Z,29.63
2018-07-30T18:34:36.516Z,29.53
2018-07-30T18:37:06.196Z,29.44
2018-07-30T18:39:35.946Z,29.33
2018-07-30T18:42:06.247Z,29.12
2018-07-30T18:44:36.303Z,28.85
2018-07-30T18:47:05.875Z,28.59
2018-07-30T18:49:36.104Z,28.43
2018-07-30T18:52:05.952Z,28.28
2018-07-30T18:54:36.011Z,28.19
2018-07-30T18:57:06.230Z,28.09
2018-07-30T18:59:36.045Z,27.99
2018-07-30T19:02:06.491Z,27.86
2018-07-30T19:04:36.295Z,27.76
2018-07-30T19:07:06.597Z,27.67
2018-07-30T19:09:36.271Z,27.56
2018-07-30T19:12:06.127Z,27.45
2018-07-30T19:14:36.523Z,27.36
2018-07-30T19:17:06.384Z,27.27
2018-07-30T19:19:36.216Z,27.19
2018-07-30T19:22:06.162Z,27.11
2018-07-30T19:24:36.542Z,27.02
2018-07-30T19:27:06.527Z,26.96
2018-07-30T19:29:36.292Z,26.89
2018-07-30T19:32:06.203Z,26.81
2018-07-30T19:34:35.384Z,26.75
2018-07-30T19:37:04.515Z,26.71
2018-07-30T19:39:34.092Z,26.67
2018-07-30T19:42:03.196Z,26.60
2018-07-30T19:44:32.394Z,26.54
2018-07-30T19:47:01.441Z,26.47
2018-07-30T19:49:30.718Z,26.43
2018-07-30T19:52:00.248Z,26.38
2018-07-30T19:54:29.702Z,26.27
2018-07-30T19:56:58.961Z,26.21
2018-07-30T19:59:28.461Z,26.15
2018-07-30T20:01:57.579Z,26.10
2018-07-30T20:04:27.079Z,26.03
2018-07-30T20:06:56.211Z,25.92
2018-07-30T20:09:25.633Z,25.84
2018-07-30T20:11:54.739Z,25.76
2018-07-30T20:14:24.233Z,25.71
2018-07-30T20:16:53.358Z,25.65
2018-07-30T20:19:22.443Z,25.57
2018-07-30T20:21:51.784Z,25.51
2018-07-30T20:24:21.083Z,25.44
2018-07-30T20:26:50.525Z,25.42
2018-07-30T20:29:19.775Z,25.37
2018-07-30T20:31:48.915Z,25.31
2018-07-30T20:34:18.261Z,25.23
2018-07-30T20:36:47.375Z,25.15
2018-07-30T20:39:16.878Z,25.08
2018-07-30T20:41:46.361Z,25.04
2018-07-30T20:44:15.415Z,25.01
2018-07-30T20:46:44.535Z,24.96
2018-07-30T20:49:13.649Z,24.89
2018-07-30T20:51:42.727Z,24.83
2018-07-30T20:54:12.264Z,24.76
2018-07-30T20:56:41.367Z,24.73
2018-07-30T20:59:10.777Z,24.62
2018-07-30T21:01:40.049Z,24.57
2018-07-30T21:04:09.149Z,24.55
2018-07-30T21:06:38.209Z,24.56
2018-07-30T21:09:09.969Z,24.58
2018-07-30T21:11:39.475Z,24.62
2018-07-30T21:14:08.573Z,24.66
2018-07-30T21:16:37.847Z,24.70
2018-07-30T21:19:07.153Z,24.71
2018-07-30T21:21:37.277Z,24.69
2018-07-30T21:24:07.769Z,24.66
2018-07-30T21:26:37.504Z,24.57
2018-07-30T21:29:07.229Z,24.49
2018-07-30T21:31:37.385Z,24.44
2018-07-30T21:34:06.439Z,24.35
2018-07-30T21:36:35.512Z,24.29
2018-07-30T21:39:06.615Z,24.21
2018-07-30T21:41:35.693Z,24.19
2018-07-30T21:44:04.802Z,24.22
2018-07-30T21:46:33.850Z,24.24
2018-07-30T21:49:03.033Z,24.22
2018-07-30T21:51:32.169Z,24.20
2018-07-30T21:54:01.348Z,24.06
2018-07-30T21:56:30.639Z,23.92
2018-07-30T21:58:59.849Z,23.88
2018-07-30T22:01:28.931Z,23.85
2018-07-30T22:03:58.002Z,23.80
2018-07-30T22:06:27.186Z,23.72
2018-07-30T22:08:56.253Z,23.58
2018-07-30T22:11:25.749Z,23.45
2018-07-30T22:13:54.900Z,23.39
2018-07-30T22:16:24.680Z,23.36
2018-07-30T22:18:53.843Z,23.32
2018-07-30T22:21:23.362Z,23.25
2018-07-30T22:23:52.842Z,23.22
2018-07-30T22:26:21.945Z,23.19
2018-07-30T22:28:51.293Z,23.15
2018-07-30T22:31:20.350Z,23.12
2018-07-30T22:33:49.654Z,23.09
2018-07-30T22:36:18.800Z,23.05
2018-07-30T22:38:47.867Z,23.01
2018-07-30T22:43:45.301Z,22.92
2018-07-30T22:46:14.355Z,22.86
2018-07-30T22:48:43.470Z,22.79
2018-07-30T22:51:12.880Z,22.78
2018-07-30T22:53:41.971Z,22.80
2018-07-30T22:56:11.109Z,22.81
2018-07-30T22:58:40.715Z,22.83
2018-07-30T23:01:09.832Z,22.84
2018-07-30T23:03:40.038Z,22.85
2018-07-30T23:06:09.969Z,22.86
2018-07-30T23:08:40.001Z,22.88
2018-07-30T23:11:09.850Z,22.89
2018-07-30T23:13:39.876Z,22.88
2018-07-30T23:16:09.900Z,22.86
2018-07-30T23:18:40.052Z,22.83
2018-07-30T23:21:09.953Z,22.82
2018-07-30T23:23:39.989Z,22.77
2018-07-30T23:26:09.041Z,22.74
2018-07-30T23:28:38.101Z,22.70
2018-07-30T23:31:07.657Z,22.64
2018-07-30T23:33:36.688Z,22.58
2018-07-30T23:36:05.819Z,22.54
2018-07-30T23:38:34.867Z,22.47
2018-07-30T23:41:03.976Z,22.39
2018-07-30T23:43:33.029Z,22.30
2018-07-30T23:46:02.142Z,22.21
2018-07-30T23:48:31.233Z,22.19
2018-07-30T23:51:00.437Z,22.18
2018-07-30T23:53:29.607Z,22.15
2018-07-30T23:55:58.763Z,22.13
2018-07-30T23:58:27.801Z,22.12
